createdAt,value
2024-03-07T00:00:17.974Z,4.62
2024-03-07T00:02:46.274Z,4.63
2024-03-07T00:05:16.986Z,4.62
2024-03-07T00:07:43.976Z,4.76
2024-03-07T00:10:11.307Z,4.69
2024-03-07T00:12:42.043Z,4.60
2024-03-07T00:15:10.088Z,4.54
2024-03-07T00:17:36.801Z,4.54
2024-03-07T00:20:10.654Z,4.55
2024-03-07T00:22:37.709Z,4.60
2024-03-07T00:25:06.537Z,4.54
2024-03-07T00:27:33.718Z,4.45
2024-03-07T00:30:00.693Z,4.36
2024-03-07T00:32:31.029Z,4.28
2024-03-07T00:35:00.645Z,4.32
2024-03-07T00:37:27.208Z,4.29
2024-03-07T00:39:53.701Z,4.25
2024-03-07T00:42:20.241Z,4.12
2024-03-07T00:44:47.727Z,4.00
2024-03-07T00:47:14.244Z,3.94
2024-03-07T00:49:41.185Z,3.95
2024-03-07T00:52:07.734Z,3.77
2024-03-07T00:54:34.251Z,3.67
2024-03-07T00:57:00.851Z,3.53
2024-03-07T00:59:27.374Z,3.49
2024-03-07T01:01:54.096Z,3.42
2024-03-07T01:04:20.647Z,3.42
2024-03-07T01:06:47.163Z,3.39
2024-03-07T01:09:17.842Z,3.33
2024-03-07T01:11:46.271Z,3.33
2024-03-07T01:14:14.489Z,3.42
2024-03-07T01:16:41.070Z,3.32
2024-03-07T01:19:08.478Z,3.35
2024-03-07T01:21:39.085Z,3.28
2024-03-07T01:24:06.834Z,3.19
2024-03-07T01:26:34.756Z,3.16
2024-03-07T01:29:01.638Z,3.11
2024-03-07T01:31:28.796Z,3.06
2024-03-07T01:33:55.774Z,3.00
2024-03-07T01:36:22.806Z,2.99
2024-03-07T01:38:49.667Z,2.96
2024-03-07T01:41:16.539Z,2.89
2024-03-07T01:43:43.579Z,2.83
2024-03-07T01:46:11.266Z,2.82
2024-03-07T01:48:38.881Z,2.78
2024-03-07T01:51:05.668Z,2.76
2024-03-07T01:53:33.028Z,2.68
2024-03-07T01:56:03.883Z,2.69
2024-03-07T01:58:31.329Z,2.63
2024-03-07T02:00:59.149Z,2.62
2024-03-07T02:03:25.845Z,2.60
2024-03-07T02:05:52.338Z,2.59
2024-03-07T02:08:20.709Z,2.56
2024-03-07T02:10:47.539Z,2.49
2024-03-07T02:13:14.114Z,2.42
2024-03-07T02:15:40.553Z,2.36
2024-03-07T02:18:07.411Z,2.31
2024-03-07T02:20:34.017Z,1.95
2024-03-07T02:23:00.512Z,1.68
2024-03-07T02:25:26.985Z,1.55
2024-03-07T02:27:53.488Z,1.37
2024-03-07T02:30:20.125Z,1.08
2024-03-07T02:33:08.585Z,0.87
2024-03-07T02:35:38.334Z,0.68
2024-03-07T02:38:06.243Z,0.62
2024-03-07T02:40:32.804Z,0.58
2024-03-07T02:42:59.602Z,0.43
2024-03-07T02:45:26.752Z,0.40
2024-03-07T02:47:54.831Z,0.32
2024-03-07T02:50:22.966Z,0.21
2024-03-07T02:52:50.695Z,0.17
2024-03-07T02:55:17.193Z,0.08
2024-03-07T02:57:43.689Z,0.04
2024-03-07T03:00:28.121Z,-0.12
2024-03-07T03:02:55.210Z,0.05
2024-03-07T03:05:21.989Z,-0.09
2024-03-07T03:07:55.156Z,-0.17
2024-03-07T03:10:21.806Z,-0.29
2024-03-07T03:12:48.417Z,-0.33
2024-03-07T03:15:16.075Z,-0.36
2024-03-07T03:17:42.970Z,-0.47
2024-03-07T03:20:25.287Z,-0.29
2024-03-07T03:23:07.297Z,-0.41
2024-03-07T03:25:40.638Z,-0.29
2024-03-07T03:28:07.580Z,-0.28
2024-03-07T03:30:34.196Z,-0.57
2024-03-07T03:33:01.504Z,-0.61
2024-03-07T03:35:28.019Z,-0.46
2024-03-07T03:37:54.515Z,-0.35
2024-03-07T03:40:21.009Z,-0.41
2024-03-07T03:42:47.523Z,-0.61
2024-03-07T03:45:15.613Z,-0.56
2024-03-07T03:47:43.650Z,-0.43
2024-03-07T03:50:12.526Z,-0.32
2024-03-07T03:52:39.697Z,-0.43
2024-03-07T03:55:06.776Z,-0.56
2024-03-07T03:57:34.350Z,-0.66
2024-03-07T04:00:01.010Z,-0.75
2024-03-07T04:02:27.557Z,-0.80
2024-03-07T04:04:54.656Z,-0.97
2024-03-07T04:07:21.920Z,-0.98
2024-03-07T04:09:49.004Z,-0.71
2024-03-07T04:12:16.503Z,-0.84
2024-03-07T04:14:44.409Z,-1.23
2024-03-07T04:17:14.822Z,-1.20
2024-03-07T04:19:42.912Z,-1.05
2024-03-07T04:22:09.930Z,-0.89
2024-03-07T04:24:36.741Z,-1.12
2024-03-07T04:27:07.388Z,-1.19
2024-03-07T04:29:35.039Z,-1.18
2024-03-07T04:32:02.569Z,-1.10
2024-03-07T04:34:31.744Z,-1.11
2024-03-07T04:36:59.868Z,-1.10
2024-03-07T04:39:33.577Z,-1.19
2024-03-07T04:42:04.164Z,-1.26
2024-03-07T04:44:31.589Z,-1.23
2024-03-07T04:47:00.011Z,-1.24
2024-03-07T04:49:28.678Z,-1.34
2024-03-07T04:51:57.621Z,-1.35
2024-03-07T04:54:25.401Z,-1.25
2024-03-07T04:56:53.291Z,-1.25
2024-03-07T04:59:20.693Z,-0.93
2024-03-07T05:01:48.310Z,-1.10
2024-03-07T05:04:16.072Z,-1.25
2024-03-07T05:06:42.765Z,-1.36
2024-03-07T05:09:10.766Z,-1.39
2024-03-07T05:11:37.881Z,-1.32
2024-03-07T05:14:04.593Z,-1.42
2024-03-07T05:16:35.235Z,-1.49
2024-03-07T05:19:01.995Z,-1.39
2024-03-07T05:21:34.090Z,-1.43
2024-03-07T05:24:01.767Z,-1.42
2024-03-07T05:26:28.414Z,-1.52
2024-03-07T05:28:57.939Z,-1.51
2024-03-07T05:31:24.692Z,-1.52
2024-03-07T05:33:51.451Z,-1.53
2024-03-07T05:36:17.944Z,-1.54
2024-03-07T05:38:44.587Z,-1.59
2024-03-07T05:41:13.404Z,-1.58
2024-03-07T05:43:40.891Z,-1.63
2024-03-07T05:46:12.031Z,-1.56
2024-03-07T05:48:38.552Z,-1.56
2024-03-07T05:51:05.452Z,-1.61
2024-03-07T05:53:32.074Z,-1.66
2024-03-07T05:55:58.592Z,-1.72
2024-03-07T05:58:25.084Z,-1.76
2024-03-07T06:00:51.932Z,-1.69
2024-03-07T06:03:21.517Z,-1.69
2024-03-07T06:05:49.274Z,-1.61
2024-03-07T06:08:19.429Z,-1.67
2024-03-07T06:10:46.455Z,-1.61
2024-03-07T06:13:13.664Z,-1.77
2024-03-07T06:15:40.873Z,-1.71
2024-03-07T06:18:12.195Z,-1.82
2024-03-07T06:20:39.404Z,-1.74
2024-03-07T06:23:06.395Z,-1.64
2024-03-07T06:25:48.674Z,-1.65
2024-03-07T06:28:15.370Z,-1.59
2024-03-07T06:30:44.055Z,-1.54
2024-03-07T06:33:11.280Z,-1.49
2024-03-07T06:35:39.556Z,-1.28
2024-03-07T06:38:12.085Z,-1.41
2024-03-07T06:40:41.316Z,-1.35
2024-03-07T06:43:08.415Z,-1.24
2024-03-07T06:45:35.056Z,-1.33
2024-03-07T06:48:02.076Z,-1.31
2024-03-07T06:50:36.545Z,-1.30
2024-03-07T06:53:07.699Z,-1.27
2024-03-07T06:55:37.538Z,-1.22
2024-03-07T06:58:07.389Z,-1.15
2024-03-07T07:00:37.083Z,-1.16
2024-03-07T07:03:07.357Z,-1.14
2024-03-07T07:05:35.012Z,-1.07
2024-03-07T07:08:02.223Z,-1.01
2024-03-07T07:10:28.948Z,-0.96
2024-03-07T07:12:56.300Z,-0.88
2024-03-07T07:15:23.245Z,-0.72
2024-03-07T07:17:51.054Z,-0.69
2024-03-07T07:20:18.440Z,-0.53
2024-03-07T07:22:50.673Z,-0.33
2024-03-07T07:25:17.805Z,-0.10
2024-03-07T07:27:48.506Z,0.10
2024-03-07T07:30:20.107Z,0.36
2024-03-07T07:32:47.036Z,0.41
2024-03-07T07:35:13.764Z,0.41
2024-03-07T07:37:41.329Z,0.48
2024-03-07T07:40:09.845Z,0.56
2024-03-07T07:42:39.705Z,0.60
2024-03-07T07:45:08.229Z,0.64
2024-03-07T07:47:38.631Z,0.70
2024-03-07T07:50:13.764Z,0.80
2024-03-07T07:52:54.520Z,0.89
2024-03-07T07:55:22.445Z,1.00
2024-03-07T07:57:53.585Z,1.02
2024-03-07T08:00:25.107Z,1.23
2024-03-07T08:02:53.739Z,1.44
2024-03-07T08:05:24.045Z,1.60
2024-03-07T08:07:52.006Z,1.69
2024-03-07T08:10:20.037Z,1.96
2024-03-07T08:12:46.632Z,1.81
2024-03-07T08:15:17.037Z,1.69
2024-03-07T08:17:44.965Z,1.64
2024-03-07T08:20:16.107Z,1.70
2024-03-07T08:22:44.040Z,1.91
2024-03-07T08:25:11.805Z,2.24
2024-03-07T08:27:39.552Z,2.42
2024-03-07T08:30:13.993Z,2.45
2024-03-07T08:32:45.434Z,2.50
2024-03-07T08:35:12.735Z,2.48
2024-03-07T08:37:40.653Z,2.64
2024-03-07T08:40:11.964Z,2.80
2024-03-07T08:42:38.890Z,2.89
2024-03-07T08:45:06.279Z,2.85
2024-03-07T08:47:34.079Z,2.59
2024-03-07T08:50:01.626Z,2.65
2024-03-07T08:52:28.832Z,2.62
2024-03-07T08:54:56.016Z,2.64
2024-03-07T08:57:23.145Z,2.73
2024-03-07T08:59:49.848Z,2.63
2024-03-07T09:02:17.274Z,2.45
2024-03-07T09:04:43.926Z,2.70
2024-03-07T09:07:10.681Z,2.63
2024-03-07T09:09:37.204Z,2.72
2024-03-07T09:12:04.192Z,2.91
2024-03-07T09:14:30.828Z,2.87
2024-03-07T09:16:58.161Z,3.20
2024-03-07T09:19:28.317Z,3.16
2024-03-07T09:21:55.438Z,3.04
2024-03-07T09:24:24.862Z,2.95
2024-03-07T09:26:53.063Z,3.30
2024-03-07T09:29:20.792Z,3.41
2024-03-07T09:31:50.169Z,3.31
2024-03-07T09:34:17.457Z,3.40
2024-03-07T09:36:43.983Z,3.74
2024-03-07T09:39:10.582Z,3.96
2024-03-07T09:41:37.689Z,3.96
2024-03-07T09:44:05.532Z,3.81
2024-03-07T09:46:33.169Z,3.93
2024-03-07T09:48:59.771Z,4.13
2024-03-07T09:51:28.536Z,4.13
2024-03-07T09:53:59.158Z,4.06
2024-03-07T09:56:28.126Z,3.97
2024-03-07T09:58:58.219Z,4.00
2024-03-07T10:01:27.243Z,4.09
2024-03-07T10:03:59.477Z,4.16
2024-03-07T10:06:28.130Z,4.16
2024-03-07T10:08:54.659Z,4.03
2024-03-07T10:11:21.988Z,4.08
2024-03-07T10:13:50.227Z,4.37
2024-03-07T10:16:18.554Z,4.32
2024-03-07T10:18:47.045Z,4.19
2024-03-07T10:21:20.620Z,4.13
2024-03-07T10:23:48.487Z,4.14
2024-03-07T10:26:17.125Z,4.35
2024-03-07T10:28:44.000Z,4.65
2024-03-07T10:31:12.532Z,4.73
2024-03-07T10:33:41.204Z,4.27
2024-03-07T10:36:11.332Z,4.36
2024-03-07T10:38:38.633Z,4.35
2024-03-07T10:41:09.251Z,4.64
2024-03-07T10:43:41.606Z,4.50
2024-03-07T10:46:11.408Z,4.80
2024-03-07T10:48:40.631Z,4.82
2024-03-07T10:51:31.237Z,4.68
2024-03-07T10:54:18.954Z,4.75
2024-03-07T10:57:06.472Z,4.85
2024-03-07T10:59:35.350Z,4.98
2024-03-07T11:02:20.892Z,4.95
2024-03-07T11:04:50.617Z,4.97
2024-03-07T11:07:17.401Z,4.91
2024-03-07T11:09:46.910Z,5.43
2024-03-07T11:12:14.176Z,5.18
2024-03-07T11:14:41.577Z,5.41
2024-03-07T11:17:10.548Z,5.40
2024-03-07T11:19:40.651Z,5.61
2024-03-07T11:22:16.704Z,5.69
2024-03-07T11:24:43.995Z,5.64
2024-03-07T11:27:14.860Z,5.95
2024-03-07T11:29:48.893Z,6.01
2024-03-07T11:32:16.363Z,5.99
2024-03-07T11:34:47.238Z,6.31
2024-03-07T11:37:44.456Z,5.92
2024-03-07T11:40:19.498Z,6.11
2024-03-07T11:42:50.277Z,5.60
2024-03-07T11:45:25.948Z,5.46
2024-03-07T11:48:10.865Z,5.77
2024-03-07T11:50:41.706Z,5.64
2024-03-07T11:53:10.112Z,5.51
2024-03-07T11:55:47.215Z,5.92
2024-03-07T11:58:24.136Z,6.11
2024-03-07T12:00:52.643Z,6.07
2024-03-07T12:03:25.788Z,6.02
2024-03-07T12:05:53.479Z,6.31
2024-03-07T12:08:24.033Z,5.97
2024-03-07T12:10:55.043Z,5.99
2024-03-07T12:13:21.828Z,5.99
2024-03-07T12:15:48.448Z,6.34
2024-03-07T12:18:15.360Z,6.18
2024-03-07T12:20:43.780Z,6.60
2024-03-07T12:23:10.419Z,6.37
2024-03-07T12:25:37.413Z,6.03
2024-03-07T12:28:18.163Z,6.11
2024-03-07T12:30:47.935Z,6.27
2024-03-07T12:33:21.377Z,6.10
2024-03-07T12:35:51.143Z,6.02
2024-03-07T12:38:18.513Z,6.15
2024-03-07T12:40:47.150Z,6.07
2024-03-07T12:43:22.980Z,5.97
2024-03-07T12:45:53.578Z,5.89
2024-03-07T12:48:22.487Z,5.93
2024-03-07T12:50:54.559Z,5.80
2024-03-07T12:53:23.096Z,5.78
2024-03-07T12:55:50.006Z,5.86
2024-03-07T12:58:16.652Z,5.84
2024-03-07T13:00:44.715Z,5.90
2024-03-07T13:03:11.562Z,5.93
2024-03-07T13:05:41.660Z,5.91
2024-03-07T13:08:17.745Z,5.97
2024-03-07T13:10:45.023Z,5.76
2024-03-07T13:13:12.492Z,5.59
2024-03-07T13:15:40.309Z,5.71
2024-03-07T13:18:08.281Z,5.79
2024-03-07T13:20:34.892Z,5.75
2024-03-07T13:23:02.149Z,5.85
2024-03-07T13:25:33.636Z,5.62
2024-03-07T13:28:08.625Z,5.65
2024-03-07T13:30:37.167Z,5.75
2024-03-07T13:33:04.705Z,5.82
2024-03-07T13:35:31.396Z,5.97
2024-03-07T13:37:58.064Z,6.17
2024-03-07T13:40:26.291Z,6.22
2024-03-07T13:42:57.556Z,6.13
2024-03-07T13:45:28.137Z,6.07
2024-03-07T13:47:55.870Z,5.77
2024-03-07T13:50:40.669Z,5.69
2024-03-07T13:53:30.155Z,5.70
2024-03-07T13:56:30.029Z,5.88
2024-03-07T13:59:05.545Z,5.95
2024-03-07T14:02:13.539Z,6.16
2024-03-07T14:05:14.498Z,6.47
2024-03-07T14:08:29.662Z,6.58
2024-03-07T14:11:32.950Z,6.53
2024-03-07T14:14:23.116Z,6.69
2024-03-07T14:17:40.525Z,6.45
2024-03-07T14:20:47.059Z,6.37
2024-03-07T14:23:19.435Z,6.58
2024-03-07T14:26:28.548Z,6.79
2024-03-07T14:29:20.352Z,6.45
2024-03-07T14:31:50.469Z,6.11
2024-03-07T14:34:28.952Z,5.91
2024-03-07T14:37:03.571Z,6.13
2024-03-07T14:39:30.424Z,6.06
2024-03-07T14:42:00.067Z,6.30
2024-03-07T14:44:27.888Z,6.49
2024-03-07T14:46:59.402Z,6.14
2024-03-07T14:49:26.065Z,5.98
2024-03-07T14:52:00.044Z,6.18
2024-03-07T14:54:28.916Z,6.67
2024-03-07T14:56:55.953Z,7.66
2024-03-07T14:59:22.982Z,8.41
2024-03-07T15:01:50.183Z,9.02
2024-03-07T15:04:16.825Z,8.30
2024-03-07T15:06:45.172Z,7.87
2024-03-07T15:09:11.741Z,7.83
2024-03-07T15:11:41.528Z,7.51
2024-03-07T15:14:11.741Z,7.08
2024-03-07T15:16:39.981Z,7.07
2024-03-07T15:19:13.823Z,6.76
2024-03-07T15:21:40.644Z,6.71
2024-03-07T15:24:07.745Z,6.61
2024-03-07T15:26:35.891Z,6.61
2024-03-07T15:29:02.617Z,6.67
2024-03-07T15:31:29.819Z,6.73
2024-03-07T15:33:56.955Z,6.77
2024-03-07T15:36:23.986Z,6.72
2024-03-07T15:38:50.963Z,6.70
2024-03-07T15:41:17.838Z,6.61
2024-03-07T15:43:44.479Z,6.54
2024-03-07T15:46:17.056Z,6.51
2024-03-07T15:48:46.765Z,6.60
2024-03-07T15:51:13.407Z,6.60
2024-03-07T15:53:41.820Z,6.47
2024-03-07T15:56:08.713Z,6.34
2024-03-07T15:58:35.475Z,6.22
2024-03-07T16:01:03.104Z,6.07
2024-03-07T16:03:29.748Z,6.10
2024-03-07T16:05:57.852Z,6.11
2024-03-07T16:08:24.841Z,6.16
2024-03-07T16:10:52.326Z,6.21
2024-03-07T16:13:18.959Z,6.14
2024-03-07T16:15:46.576Z,6.16
2024-03-07T16:18:15.516Z,6.08
2024-03-07T16:20:42.775Z,6.00
2024-03-07T16:23:09.492Z,6.02
2024-03-07T16:25:40.351Z,6.06
2024-03-07T16:28:08.657Z,6.05
2024-03-07T16:30:36.842Z,5.85
2024-03-07T16:33:05.421Z,5.81
2024-03-07T16:35:32.589Z,5.92
2024-03-07T16:37:59.943Z,5.82
2024-03-07T16:40:28.201Z,5.82
2024-03-07T16:42:57.645Z,5.71
2024-03-07T16:45:26.494Z,5.67
2024-03-07T16:47:58.214Z,5.66
2024-03-07T16:50:33.153Z,5.64
2024-03-07T16:53:08.606Z,5.69
2024-03-07T16:55:40.325Z,5.63
2024-03-07T16:58:13.701Z,5.67
2024-03-07T17:00:43.333Z,5.56
2024-03-07T17:03:11.618Z,5.56
2024-03-07T17:05:41.130Z,5.67
2024-03-07T17:08:09.046Z,5.68
2024-03-07T17:10:40.665Z,5.59
2024-03-07T17:13:10.862Z,5.50
2024-03-07T17:15:43.088Z,5.55
2024-03-07T17:18:15.901Z,5.47
2024-03-07T17:20:45.344Z,5.43
2024-03-07T17:23:13.607Z,5.39
2024-03-07T17:25:40.291Z,5.36
2024-03-07T17:28:06.816Z,5.36
2024-03-07T17:30:33.980Z,5.41
2024-03-07T17:33:01.706Z,5.37
2024-03-07T17:35:31.000Z,5.30
2024-03-07T17:37:58.514Z,5.30
2024-03-07T17:40:28.431Z,5.31
2024-03-07T17:42:55.663Z,5.25
2024-03-07T17:45:26.653Z,5.28
2024-03-07T17:47:58.935Z,5.32
2024-03-07T17:50:27.557Z,5.32
2024-03-07T17:53:08.718Z,5.22
2024-03-07T17:55:36.035Z,5.18
2024-03-07T17:58:05.033Z,5.17
2024-03-07T18:00:33.145Z,5.13
2024-03-07T18:03:05.772Z,5.15
2024-03-07T18:05:37.668Z,5.17
2024-03-07T18:10:41.131Z,5.20
2024-03-07T18:13:12.673Z,5.26
2024-03-07T18:15:40.638Z,5.24
2024-03-07T18:18:10.949Z,5.16
2024-03-07T18:20:45.907Z,5.20
2024-03-07T18:23:13.895Z,5.19
2024-03-07T18:25:41.969Z,5.16
2024-03-07T18:28:08.791Z,5.15
2024-03-07T18:30:35.495Z,5.13
2024-03-07T18:33:06.967Z,5.08
2024-03-07T18:35:37.633Z,5.03
2024-03-07T18:38:07.751Z,4.99
2024-03-07T18:40:34.919Z,5.02
2024-03-07T18:43:07.777Z,4.96
2024-03-07T18:45:36.789Z,4.98
2024-03-07T18:48:08.201Z,4.96
2024-03-07T18:50:39.460Z,4.92
2024-03-07T18:53:06.193Z,4.93
2024-03-07T18:55:32.737Z,4.96
2024-03-07T18:58:04.110Z,5.01
2024-03-07T19:00:32.451Z,5.04
2024-03-07T19:03:04.386Z,5.00
2024-03-07T19:05:33.133Z,4.98
2024-03-07T19:08:01.952Z,4.97
2024-03-07T19:10:31.999Z,5.00
2024-03-07T19:12:59.468Z,4.91
2024-03-07T19:15:26.700Z,4.91
2024-03-07T19:17:53.871Z,4.91
2024-03-07T19:20:21.482Z,4.89
2024-03-07T19:22:49.455Z,4.91
2024-03-07T19:25:18.575Z,4.99
2024-03-07T19:27:50.355Z,4.85
2024-03-07T19:30:18.035Z,4.86
2024-03-07T19:32:48.134Z,4.87
2024-03-07T19:35:17.801Z,4.78
2024-03-07T19:37:46.158Z,4.72
2024-03-07T19:40:22.459Z,4.69
2024-03-07T19:42:52.481Z,4.57
2024-03-07T19:45:20.175Z,4.49
2024-03-07T19:47:47.598Z,4.40
2024-03-07T19:50:17.702Z,4.27
2024-03-07T19:52:47.207Z,4.12
2024-03-07T19:55:14.641Z,4.09
2024-03-07T19:57:43.138Z,4.02
2024-03-07T20:00:10.158Z,3.99
2024-03-07T20:02:39.970Z,3.99
2024-03-07T20:05:08.369Z,4.09
2024-03-07T20:07:35.667Z,4.12
2024-03-07T20:10:07.954Z,4.22
2024-03-07T20:12:36.751Z,4.19
2024-03-07T20:15:04.917Z,4.14
2024-03-07T20:17:32.287Z,4.13
2024-03-07T20:19:59.135Z,4.21
2024-03-07T20:22:26.230Z,4.24
2024-03-07T20:24:53.102Z,4.28
2024-03-07T20:27:19.968Z,4.23
2024-03-07T20:29:46.496Z,4.25
2024-03-07T20:32:13.161Z,4.32
2024-03-07T20:34:42.298Z,4.40
2024-03-07T20:37:11.924Z,4.35
2024-03-07T20:39:40.764Z,4.24
2024-03-07T20:42:11.230Z,4.12
2024-03-07T20:44:38.990Z,4.14
2024-03-07T20:47:07.782Z,4.10
2024-03-07T20:49:36.893Z,4.10
2024-03-07T20:52:04.454Z,4.16
2024-03-07T20:54:31.130Z,4.16
2024-03-07T20:56:58.793Z,4.20
2024-03-07T20:59:25.546Z,4.07
2024-03-07T21:01:53.278Z,3.99
2024-03-07T21:04:21.222Z,3.99
2024-03-07T21:06:48.776Z,3.98
2024-03-07T21:09:17.105Z,3.85
2024-03-07T21:11:45.208Z,3.82
2024-03-07T21:14:12.628Z,3.78
2024-03-07T21:16:44.809Z,3.75
2024-03-07T21:19:11.503Z,3.75
2024-03-07T21:21:38.587Z,3.69
2024-03-07T21:24:05.812Z,3.61
2024-03-07T21:26:32.685Z,3.56
2024-03-07T21:28:59.400Z,3.49
2024-03-07T21:31:27.603Z,3.48
2024-03-07T21:33:54.092Z,3.46
2024-03-07T21:36:20.613Z,3.43
2024-03-07T21:38:51.173Z,3.48
2024-03-07T21:41:18.097Z,3.47
2024-03-07T21:43:44.561Z,3.43
2024-03-07T21:46:14.654Z,3.36
2024-03-07T21:48:42.563Z,3.32
2024-03-07T21:51:11.232Z,3.32
2024-03-07T21:53:42.335Z,3.27
2024-03-07T21:56:09.108Z,3.24
2024-03-07T21:58:35.564Z,3.17
2024-03-07T22:01:02.202Z,3.14
2024-03-07T22:03:28.767Z,3.09
2024-03-07T22:05:55.395Z,2.98
2024-03-07T22:08:24.709Z,2.95
2024-03-07T22:10:51.428Z,2.91
2024-03-07T22:13:21.075Z,2.84
2024-03-07T22:15:49.071Z,2.79
2024-03-07T22:18:15.707Z,2.75
2024-03-07T22:20:42.347Z,2.59
2024-03-07T22:23:08.850Z,2.42
2024-03-07T22:25:35.377Z,2.40
2024-03-07T22:28:04.865Z,1.88
2024-03-07T22:30:31.618Z,1.55
2024-03-07T22:32:58.357Z,1.34
2024-03-07T22:35:25.425Z,1.14
2024-03-07T22:37:53.325Z,0.93
2024-03-07T22:40:28.466Z,0.82
2024-03-07T22:42:55.356Z,0.71
2024-03-07T22:45:22.075Z,0.63
2024-03-07T22:47:52.181Z,0.74
2024-03-07T22:50:27.757Z,0.63
2024-03-07T22:52:58.510Z,0.70
2024-03-07T22:55:25.268Z,0.60
2024-03-07T22:57:51.981Z,0.56
2024-03-07T23:00:29.533Z,0.41
2024-03-07T23:02:58.372Z,0.40
2024-03-07T23:05:25.883Z,0.47
2024-03-07T23:07:52.436Z,0.53
2024-03-07T23:10:20.548Z,0.71
2024-03-07T23:12:50.499Z,0.54
2024-03-07T23:15:17.163Z,0.42
2024-03-07T23:17:47.013Z,-0.06
2024-03-07T23:20:32.304Z,-0.17
2024-03-07T23:23:00.254Z,-0.06
2024-03-07T23:25:27.898Z,0.33
2024-03-07T23:27:55.512Z,0.38
2024-03-07T23:30:24.342Z,0.67
2024-03-07T23:32:52.642Z,0.93
2024-03-07T23:35:19.687Z,1.06
2024-03-07T23:37:47.778Z,1.15
2024-03-07T23:40:14.911Z,1.16
2024-03-07T23:42:43.642Z,1.20
2024-03-07T23:45:13.333Z,1.20
2024-03-07T23:47:42.166Z,1.15
2024-03-07T23:50:11.845Z,1.15
2024-03-07T23:52:40.750Z,1.14
2024-03-07T23:55:07.648Z,1.13
2024-03-07T23:57:34.592Z,1.16
